Time;durP1;ratioP1;P1;durP2;ratioP2;P2;SDS_P1;SDS_P2;PMS_P1;PMS_P2;Temp;Humidity;BMP_temperature;BMP_pressure;BME280_temperature;BME280_humidity;BME280_pressure;Samples;Min_cycle;Max_cycle;Signal;HPM_P1;HPM_P2
2022/08/27 00:01:16;;;;;;;1999.90;999.90;;;;;;;18.59;100.00;86988.53;4919229;29;20222;-59
2022/08/27 00:03:45;;;;;;;1999.90;999.90;;;;;;;18.56;100.00;86951.22;4919586;29;20214;-59
2022/08/27 00:06:15;;;;;;;1999.90;999.90;;;;;;;18.51;100.00;86905.56;4919284;29;20236;-59
2022/08/27 00:08:42;;;;;;;1999.90;999.90;;;;;;;18.46;100.00;86821.28;4919356;29;20212;-59
2022/08/27 00:11:08;;;;;;;1999.90;999.90;;;;;;;18.40;100.00;86699.75;4919483;29;20210;-59
2022/08/27 00:13:35;;;;;;;1999.90;999.90;;;;;;;18.35;100.00;86630.00;4919318;29;20202;-59
2022/08/27 00:16:01;;;;;;;1999.90;999.90;;;;;;;18.33;100.00;86607.16;4918952;29;20286;-59
2022/08/27 00:18:26;;;;;;;1999.90;999.90;;;;;;;18.22;100.00;86575.25;4918956;29;20206;-60
2022/08/27 00:20:52;;;;;;;1999.90;999.90;;;;;;;18.19;100.00;86521.41;4919260;29;20263;-58
2022/08/27 00:23:17;;;;;;;1999.90;999.90;;;;;;;18.13;100.00;86466.84;4919089;29;20201;-59
2022/08/27 00:25:44;;;;;;;1999.90;999.90;;;;;;;18.10;100.00;86424.06;4919388;29;20277;-59
2022/08/27 00:28:09;;;;;;;1999.90;999.90;;;;;;;18.03;100.00;86397.06;4919556;29;20264;-58
2022/08/27 00:30:34;;;;;;;1999.90;999.90;;;;;;;17.99;100.00;86374.97;4920982;29;20277;-59
2022/08/27 00:33:00;;;;;;;1999.90;999.90;;;;;;;17.88;100.00;86354.13;4922889;29;20207;-58
2022/08/27 00:35:25;;;;;;;1999.90;999.90;;;;;;;17.83;100.00;86319.59;4938438;29;20198;-59
2022/08/27 00:37:51;;;;;;;1999.90;999.90;;;;;;;17.82;100.00;86265.84;4922087;29;20284;-59
2022/08/27 00:40:20;;;;;;;1999.90;999.90;;;;;;;17.84;100.00;86235.53;4938080;29;20222;-59
2022/08/27 00:42:46;;;;;;;1999.90;999.90;;;;;;;17.85;100.00;86212.78;4922101;29;20230;-59
2022/08/27 00:45:14;;;;;;;1999.90;999.90;;;;;;;17.85;100.00;86185.22;4937766;29;20217;-59
2022/08/27 00:47:46;;;;;;;1999.90;999.90;;;;;;;17.85;100.00;86163.16;4921995;29;20276;-59
2022/08/27 00:50:19;;;;;;;1999.90;999.90;;;;;;;17.85;100.00;86118.38;4922182;29;20289;-59
2022/08/27 00:52:50;;;;;;;1999.90;999.90;;;;;;;17.83;100.00;86110.09;4921518;29;20205;-60
2022/08/27 00:55:19;;;;;;;1999.90;999.90;;;;;;;17.87;100.00;86090.81;4922291;29;20213;-60
2022/08/27 00:57:52;;;;;;;1999.90;999.90;;;;;;;17.87;100.00;86058.44;4921754;29;20261;-60
2022/08/27 01:00:19;;;;;;;1999.90;999.90;;;;;;;17.92;100.00;86023.34;4922008;29;20202;-59
2022/08/27 01:02:46;;;;;;;1999.90;999.90;;;;;;;17.91;100.00;85999.88;4921722;29;20206;-59
2022/08/27 01:05:15;;;;;;;1999.90;999.90;;;;;;;17.89;100.00;85955.75;4921806;29;20225;-59
2022/08/27 01:07:45;;;;;;;1999.90;999.90;;;;;;;17.89;100.00;85908.91;4937455;29;20293;-59
2022/08/27 01:10:15;;;;;;;1999.90;999.90;;;;;;;17.88;100.00;85872.34;4937322;29;20213;-59
2022/08/27 01:12:41;;;;;;;1999.90;999.90;;;;;;;17.91;100.00;85817.91;4921521;29;20198;-59
2022/08/27 01:15:11;;;;;;;1999.90;999.90;;;;;;;17.89;100.00;85755.19;4921819;29;20210;-59
2022/08/27 01:17:38;;;;;;;1999.90;999.90;;;;;;;17.89;100.00;85715.91;4921540;29;20193;-59
2022/08/27 01:20:08;;;;;;;1999.90;999.90;;;;;;;17.89;100.00;85666.31;4921268;29;20209;-59
2022/08/27 01:23:21;;;;;;;1999.90;999.90;;;;;;;17.89;100.00;85608.41;4922072;29;20262;-59
2022/08/27 01:25:48;;;;;;;1999.90;999.90;;;;;;;17.90;100.00;85480.22;4886502;29;20279;-59
2022/08/27 01:28:13;;;;;;;1999.90;999.90;;;;;;;17.89;100.00;85418.88;4921502;29;20202;-59
2022/08/27 01:30:39;;;;;;;1999.90;999.90;;;;;;;17.88;100.00;85384.44;4937385;29;20209;-59
2022/08/27 01:33:14;;;;;;;1999.90;999.90;;;;;;;17.88;100.00;85362.38;4921269;29;20198;-59
2022/08/27 01:35:41;;;;;;;1999.90;999.90;;;;;;;17.88;100.00;85345.19;4921339;29;20190;-59
2022/08/27 01:38:08;;;;;;;1999.90;999.90;;;;;;;17.89;100.00;85321.72;4937063;29;20202;-59
2022/08/27 01:40:33;;;;;;;1999.90;999.90;;;;;;;17.91;100.00;85299.66;4921719;29;20205;-59
2022/08/27 01:42:59;;;;;;;1999.90;999.90;;;;;;;17.94;100.00;85296.22;4920660;29;20220;-59
2022/08/27 01:45:29;;;;;;;1999.90;999.90;;;;;;;17.99;100.00;85274.84;4936755;29;20297;-59
2022/08/27 01:47:55;;;;;;;1999.90;999.90;;;;;;;18.01;100.00;85219.69;4921628;29;20218;-59
2022/08/27 01:50:40;;;;;;;1999.90;999.90;;;;;;;18.03;100.00;85136.97;4921730;29;20205;-59
2022/08/27 01:53:18;;;;;;;1999.90;999.90;;;;;;;18.04;100.00;85130.06;4936940;29;20262;-58
2022/08/27 01:55:46;;;;;;;1999.90;999.90;;;;;;;18.09;100.00;85150.69;4921154;29;20265;-59
2022/08/27 01:58:11;;;;;;;1999.90;999.90;;;;;;;18.12;100.00;85202.38;4920932;29;20182;-59
2022/08/27 02:00:41;;;;;;;1999.90;999.90;;;;;;;18.18;100.00;85218.88;4937088;29;20246;-58
2022/08/27 02:03:09;;;;;;;1999.90;999.90;;;;;;;18.25;100.00;85225.06;4937004;29;20210;-58
2022/08/27 02:05:35;;;;;;;1999.90;999.90;;;;;;;18.25;100.00;85253.31;4920994;29;20218;-59
2022/08/27 02:08:01;;;;;;;1999.90;999.90;;;;;;;18.31;100.00;85277.41;4936479;29;20309;-59
2022/08/27 02:10:33;;;;;;;1999.90;999.90;;;;;;;18.35;100.00;85305.69;4920720;29;20257;-59
2022/08/27 02:12:59;;;;;;;1999.90;999.90;;;;;;;18.37;100.00;85335.34;4921187;29;20212;-59
2022/08/27 02:15:25;;;;;;;1999.90;999.90;;;;;;;18.38;100.00;85342.22;4920844;29;20214;-58
2022/08/27 02:17:51;;;;;;;1999.90;999.90;;;;;;;18.38;100.00;85375.31;4921200;29;20209;-58
2022/08/27 02:20:17;;;;;;;1999.90;999.90;;;;;;;18.35;100.00;85415.34;4920849;29;20210;-59
2022/08/27 02:22:43;;;;;;;1999.90;999.90;;;;;;;18.32;100.00;85460.84;4920599;29;20206;-59
2022/08/27 02:25:11;;;;;;;1999.90;999.90;;;;;;;18.30;100.00;85502.22;4920762;29;20520;-59
2022/08/27 02:27:36;;;;;;;1999.90;999.90;;;;;;;18.27;100.00;85537.41;4936610;29;20233;-59
2022/08/27 02:30:03;;;;;;;1999.90;999.90;;;;;;;18.28;100.00;85568.44;4920798;29;20210;-58
2022/08/27 02:32:28;;;;;;;1999.90;999.90;;;;;;;18.25;100.00;85609.09;4936065;29;20245;-59
2022/08/27 02:34:55;;;;;;;1999.90;999.90;;;;;;;18.24;100.00;85642.88;4920680;29;20237;-59
2022/08/27 02:37:21;;;;;;;1999.90;999.90;;;;;;;18.22;100.00;85679.47;4936060;29;20210;-58
2022/08/27 02:39:46;;;;;;;1999.90;999.90;;;;;;;18.21;100.00;85705.63;4920090;29;20265;-59
2022/08/27 02:42:11;;;;;;;1999.90;999.90;;;;;;;18.21;100.00;85743.59;4920621;29;20204;-59
2022/08/27 02:44:38;;;;;;;1999.90;999.90;;;;;;;18.18;100.00;85767.00;4920342;29;20308;-58
2022/08/27 02:47:03;;;;;;;1999.90;999.90;;;;;;;18.16;100.00;85780.78;4920145;29;20238;-59
2022/08/27 02:49:29;;;;;;;1999.90;999.90;;;;;;;18.20;100.00;85808.38;4920188;29;20217;-58
2022/08/27 02:51:56;;;;;;;1999.90;999.90;;;;;;;18.23;100.00;85820.81;4920280;29;20229;-59
2022/08/27 02:54:23;;;;;;;1999.90;999.90;;;;;;;18.23;100.00;85842.88;4918924;29;20213;-59
2022/08/27 02:56:50;;;;;;;1999.90;999.90;;;;;;;18.25;100.00;85859.44;4920393;29;20224;-58
2022/08/27 02:59:16;;;;;;;1999.90;999.90;;;;;;;18.27;100.00;85873.22;4920449;29;20208;-59
2022/08/27 03:01:41;;;;;;;1999.90;999.90;;;;;;;18.25;100.00;85898.72;4935658;29;20201;-59
2022/08/27 03:04:06;;;;;;;1999.90;999.90;;;;;;;18.26;100.00;85904.94;4919623;29;20221;-58
2022/08/27 03:06:32;;;;;;;1999.90;999.90;;;;;;;18.27;100.00;85917.34;4936208;29;20205;-59
2022/08/27 03:08:57;;;;;;;1999.90;999.90;;;;;;;18.31;100.00;85918.06;4919896;29;20264;-59
2022/08/27 03:11:22;;;;;;;1999.90;999.90;;;;;;;18.33;100.00;85900.84;4919905;29;20221;-58
2022/08/27 03:13:49;;;;;;;1999.90;999.90;;;;;;;18.33;100.00;85920.16;4920239;29;20206;-59
2022/08/27 03:16:14;;;;;;;1999.90;999.90;;;;;;;18.34;100.00;85947.06;4920245;29;20201;-58
2022/08/27 03:18:40;;;;;;;1999.90;999.90;;;;;;;18.32;100.00;85966.34;4919958;29;20286;-59
2022/08/27 03:21:07;;;;;;;1999.90;999.90;;;;;;;18.33;100.00;85986.38;4919696;29;20206;-59
2022/08/27 03:23:33;;;;;;;1999.90;999.90;;;;;;;18.36;100.00;86001.59;4919625;29;20293;-59
2022/08/27 03:26:00;;;;;;;1999.90;999.90;;;;;;;18.37;100.00;86014.00;4919588;29;20254;-59
2022/08/27 03:28:32;;;;;;;1999.90;999.90;;;;;;;18.39;100.00;86016.78;4919452;29;20205;-58
2022/08/27 03:31:01;;;;;;;1999.90;999.90;;;;;;;18.38;100.00;86042.97;4919942;29;20208;-59
2022/08/27 03:33:33;;;;;;;1999.90;999.90;;;;;;;18.41;100.00;86069.22;4919696;29;20202;-58
2022/08/27 03:35:59;;;;;;;1999.90;999.90;;;;;;;18.41;100.00;86118.88;4920036;29;20285;-59
2022/08/27 03:38:26;;;;;;;1999.90;999.90;;;;;;;18.39;100.00;86160.28;4919787;29;20198;-58
2022/08/27 03:40:51;;;;;;;1999.90;999.90;;;;;;;18.39;100.00;86196.81;4919502;29;20296;-59
2022/08/27 03:43:19;;;;;;;1999.90;999.90;;;;;;;18.41;100.00;86220.97;4935513;29;20237;-58
2022/08/27 03:45:46;;;;;;;1999.90;999.90;;;;;;;18.39;100.00;86276.16;4919348;29;20231;-59
2022/08/27 03:48:12;;;;;;;1999.90;999.90;;;;;;;18.42;100.00;86307.91;4919314;29;20218;-58
2022/08/27 03:50:41;;;;;;;1999.90;999.90;;;;;;;18.46;100.00;86335.53;4919373;29;20210;-59
2022/08/27 03:53:07;;;;;;;1999.90;999.90;;;;;;;18.48;100.00;86379.72;4919928;29;20228;-59
2022/08/27 03:55:33;;;;;;;1999.90;999.90;;;;;;;18.46;100.00;86418.31;4919595;29;20288;-59
2022/08/27 03:57:58;;;;;;;1999.90;999.90;;;;;;;18.48;100.00;86454.94;4919198;29;20221;-59
2022/08/27 04:00:24;;;;;;;1999.90;999.90;;;;;;;18.48;100.00;86487.34;4935223;29;20202;-58
2022/08/27 04:02:50;;;;;;;1999.90;999.90;;;;;;;18.47;100.00;86524.59;4935102;29;20225;-59
2022/08/27 04:05:16;;;;;;;1999.90;999.90;;;;;;;18.49;100.00;86563.25;4920322;29;20218;-58
2022/08/27 04:07:42;;;;;;;1999.90;999.90;;;;;;;18.49;100.00;86604.66;4922505;29;20201;-58
2022/08/27 04:10:10;;;;;;;1999.90;999.90;;;;;;;18.49;100.00;86641.25;4922137;29;20204;-58
2022/08/27 04:12:36;;;;;;;1999.90;999.90;;;;;;;18.49;100.00;86670.91;4922406;29;20201;-58
2022/08/27 04:15:03;;;;;;;1999.90;999.90;;;;;;;18.50;100.00;86699.91;4922537;29;20212;-59
2022/08/27 04:17:30;;;;;;;1999.90;999.90;;;;;;;18.53;100.00;86715.13;4938150;29;20301;-59
2022/08/27 04:19:55;;;;;;;1999.90;999.90;;;;;;;18.55;100.00;86743.50;4922042;29;20194;-59
2022/08/27 04:22:22;;;;;;;1999.90;999.90;;;;;;;18.57;100.00;86754.56;4922083;29;20206;-59
2022/08/27 04:24:48;;;;;;;1999.90;999.90;;;;;;;18.61;100.00;86776.03;4922636;29;20225;-58
2022/08/27 04:27:15;;;;;;;1999.90;999.90;;;;;;;18.63;100.00;86781.56;4937988;29;20230;-58
2022/08/27 04:29:41;;;;;;;1999.90;999.90;;;;;;;18.68;100.00;86805.09;4938112;29;20333;-58
2022/08/27 04:32:07;;;;;;;1999.90;999.90;;;;;;;18.67;100.00;86856.19;4922112;29;20263;-58
2022/08/27 04:34:33;;;;;;;1999.90;999.90;;;;;;;18.70;100.00;86899.75;4921715;29;20218;-57
2022/08/27 04:36:58;;;;;;;1999.90;999.90;;;;;;;18.72;100.00;86935.66;4922041;29;20285;-58
2022/08/27 04:39:26;;;;;;;1999.90;999.90;;;;;;;18.70;100.00;86979.09;4922177;29;20206;-58
2022/08/27 04:41:58;;;;;;;1999.90;999.90;;;;;;;18.69;100.00;87019.81;4922164;29;20265;-58
2022/08/27 04:44:28;;;;;;;1999.90;999.90;;;;;;;18.74;100.00;87037.19;4922103;29;20236;-58
2022/08/27 04:46:56;;;;;;;1999.90;999.90;;;;;;;18.77;100.00;87074.53;4921810;29;20209;-59
2022/08/27 04:49:23;;;;;;;1999.90;999.90;;;;;;;18.81;100.00;87094.66;4922513;29;20210;-59
2022/08/27 04:51:48;;;;;;;1999.90;999.90;;;;;;;18.82;100.00;87128.47;4937663;29;20257;-59
2022/08/27 04:54:14;;;;;;;1999.90;999.90;;;;;;;18.84;100.00;87161.69;4922156;29;20206;-58
2022/08/27 04:56:40;;;;;;;1999.90;999.90;;;;;;;18.85;100.00;87212.78;4921779;29;20272;-58
2022/08/27 04:59:08;;;;;;;1999.90;999.90;;;;;;;18.85;100.00;87251.47;4937457;29;20206;-59
2022/08/27 05:01:35;;;;;;;1999.90;999.90;;;;;;;18.88;100.00;87277.78;4921785;29;20201;-59
2022/08/27 05:04:01;;;;;;;1999.90;999.90;;;;;;;18.89;100.00;87313.03;4921633;29;20210;-59
2022/08/27 05:06:27;;;;;;;1999.90;999.90;;;;;;;18.89;100.00;87334.44;4921893;29;20292;-59
2022/08/27 05:08:53;;;;;;;1999.90;999.90;;;;;;;18.87;100.00;87370.28;4937558;29;20281;-59
2022/08/27 05:11:20;;;;;;;1999.90;999.90;;;;;;;18.88;100.00;87383.47;4921622;29;20209;-59
2022/08/27 05:13:46;;;;;;;1999.90;999.90;;;;;;;18.91;100.00;87406.31;4921901;29;20197;-61
2022/08/27 05:16:18;;;;;;;1999.90;999.90;;;;;;;18.93;100.00;87422.94;4920737;29;20189;-59
2022/08/27 05:18:44;;;;;;;1999.90;999.90;;;;;;;18.90;100.00;87447.03;4921965;29;20201;-59
2022/08/27 05:21:19;;;;;;;1999.90;999.90;;;;;;;18.91;100.00;87478.81;4921427;29;20206;-58
2022/08/27 05:23:44;;;;;;;1999.90;999.90;;;;;;;18.93;100.00;87511.31;4921232;29;20255;-59
2022/08/27 05:26:09;;;;;;;1999.90;999.90;;;;;;;18.98;100.00;87534.97;4937100;29;20304;-59
2022/08/27 05:28:35;;;;;;;1999.90;999.90;;;;;;;19.05;100.00;87550.38;4921660;29;20268;-59
2022/08/27 05:31:07;;;;;;;1999.90;999.90;;;;;;;19.10;100.00;87579.50;4921423;29;20202;-60
2022/08/27 05:33:33;;;;;;;1999.90;999.90;;;;;;;19.10;100.00;87621.69;4921170;29;20240;-60
2022/08/27 05:35:59;;;;;;;1999.90;999.90;;;;;;;19.05;100.00;87697.50;4921236;29;20218;-60
2022/08/27 05:38:27;;;;;;;1999.90;999.90;;;;;;;19.09;100.00;87739.09;4921523;29;20198;-60
2022/08/27 05:41:11;;;;;;;1999.90;999.90;;;;;;;19.19;100.00;87780.88;4921232;29;20293;-60
2022/08/27 05:43:38;;;;;;;1999.90;999.90;;;;;;;19.40;100.00;87809.88;4921390;29;20205;-60
2022/08/27 05:46:07;;;;;;;1999.90;999.90;;;;;;;19.71;100.00;87839.91;4936642;29;20205;-59
2022/08/27 05:48:34;;;;;;;1999.90;999.90;;;;;;;19.94;100.00;87919.47;4920888;29;20292;-60
2022/08/27 05:51:13;;;;;;;1999.90;999.90;;;;;;;20.09;100.00;88051.41;4921258;29;20256;-61
2022/08/27 05:53:40;;;;;;;1999.90;999.90;;;;;;;20.22;100.00;88213.13;4921498;29;20198;-54
2022/08/27 05:56:18;;;;;;;1999.90;999.90;;;;;;;20.20;100.00;88412.41;4921068;29;20197;-58
2022/08/27 06:01:29;;;;;;;1999.90;999.90;;;;;;;20.36;100.00;88665.09;4938247;29;20225;-58
2022/08/27 06:03:55;;;;;;;1999.90;999.90;;;;;;;20.43;100.00;88764.41;4921060;29;20236;-59
2022/08/27 06:06:21;;;;;;;1999.90;999.90;;;;;;;20.51;100.00;88859.00;4937166;29;20202;-58
2022/08/27 06:08:48;;;;;;;1999.90;999.90;;;;;;;20.60;100.00;88949.44;4920962;29;20260;-57
2022/08/27 06:11:14;;;;;;;1999.90;999.90;;;;;;;20.68;100.00;89071.03;4920731;29;20229;-56
2022/08/27 06:13:39;;;;;;;1999.90;999.90;;;;;;;20.66;100.00;89185.28;4920595;29;20204;-57
2022/08/27 06:16:15;;;;;;;1999.90;999.90;;;;;;;20.65;100.00;89266.28;4920646;29;20198;-58
2022/08/27 06:18:42;;;;;;;1999.90;999.90;;;;;;;20.72;100.00;89326.94;4921342;29;20277;-57
2022/08/27 06:21:08;;;;;;;1999.90;999.90;;;;;;;20.90;100.00;89369.44;4920786;29;20222;-58
2022/08/27 06:23:35;;;;;;;1999.90;999.90;;;;;;;21.16;100.00;89425.59;4920554;29;20212;-56
2022/08/27 06:26:00;;;;;;;1999.90;999.90;;;;;;;21.46;100.00;89515.91;4920236;29;20196;-57
2022/08/27 06:28:28;;;;;;;1999.90;999.90;;;;;;;21.63;100.00;89671.59;4920688;29;20201;-58
2022/08/27 06:31:05;;;;;;;1999.90;999.90;;;;;;;21.87;100.00;89802.72;4920282;29;20230;-58
2022/08/27 06:33:31;;;;;;;1999.90;999.90;;;;;;;22.26;100.00;89882.00;4920672;29;20202;-56
2022/08/27 06:35:59;;;;;;;1999.90;999.90;;;;;;;22.52;100.00;90033.56;4920218;29;20208;-57
2022/08/27 06:38:25;;;;;;;1999.90;999.90;;;;;;;22.42;100.00;90185.16;4920180;29;20309;-57
2022/08/27 06:40:50;;;;;;;1999.90;999.90;;;;;;;22.32;100.00;90296.50;4936350;29;20291;-59
2022/08/27 06:43:16;;;;;;;1999.90;999.90;;;;;;;22.28;100.00;90340.72;4936461;29;20210;-57
2022/08/27 06:45:41;;;;;;;1999.90;999.90;;;;;;;22.68;100.00;90336.22;4920425;29;20241;-57
2022/08/27 06:48:07;;;;;;;1999.90;999.90;;;;;;;23.18;100.00;90425.50;4920472;29;20210;-57
2022/08/27 06:50:37;;;;;;;1999.90;999.90;;;;;;;23.35;100.00;90540.06;4920387;29;20287;-57
2022/08/27 06:53:03;;;;;;;1999.90;999.90;;;;;;;23.44;100.00;90686.09;4935833;29;20190;-58
2022/08/27 06:55:28;;;;;;;1999.90;999.90;;;;;;;23.41;100.00;90773.63;4920454;29;20216;-58
2022/08/27 06:57:53;;;;;;;1999.90;999.90;;;;;;;23.26;100.00;90815.78;4920311;29;20216;-58
2022/08/27 07:00:19;;;;;;;1999.90;999.90;;;;;;;23.04;100.00;90817.06;4920001;29;20202;-57
2022/08/27 07:02:44;;;;;;;1999.90;999.90;;;;;;;22.77;100.00;90824.97;4935836;29;20206;-58
2022/08/27 07:05:11;;;;;;;1999.90;999.90;;;;;;;22.67;100.00;90763.09;4919629;29;20226;-58
2022/08/27 07:07:36;;;;;;;1999.90;999.90;;;;;;;22.48;100.00;90749.28;4920149;29;20201;-57
2022/08/27 07:10:03;;;;;;;1999.90;999.90;;;;;;;22.38;100.00;90736.13;4935466;29;20208;-58
2022/08/27 07:12:28;;;;;;;1999.90;999.90;;;;;;;22.39;100.00;90673.66;4919899;29;20233;-57
2022/08/27 07:14:54;;;;;;;1999.90;999.90;;;;;;;22.28;100.00;90690.97;4919678;29;20202;-59
2022/08/27 07:17:19;;;;;;;1999.90;999.90;;;;;;;22.19;100.00;90666.72;4935643;29;20206;-58
2022/08/27 07:19:45;;;;;;;1999.90;999.90;;;;;;;22.10;100.00;90683.44;4919721;29;20208;-57
2022/08/27 07:22:11;;;;;;;1999.90;999.90;;;;;;;22.01;100.00;90684.97;4919621;29;20212;-59
2022/08/27 07:24:37;;;;;;;1999.90;999.90;;;;;;;22.15;100.00;90660.88;4920168;29;20249;-58
2022/08/27 07:27:03;;;;;;;1999.90;999.90;;;;;;;22.24;100.00;90656.59;4920215;29;20225;-59
2022/08/27 07:29:28;;;;;;;1999.90;999.90;;;;;;;22.19;100.00;90694.50;4920286;29;20217;-57
2022/08/27 07:31:53;;;;;;;1999.90;999.90;;;;;;;22.19;100.00;90700.06;4919521;29;20261;-58
2022/08/27 07:34:19;;;;;;;1999.90;999.90;;;;;;;22.09;100.00;90702.19;4920052;29;20209;-58
2022/08/27 07:36:44;;;;;;;1999.90;999.90;;;;;;;21.90;100.00;90698.72;4919843;29;20217;-57
2022/08/27 07:39:12;;;;;;;1999.90;999.90;;;;;;;21.87;100.00;90703.44;4919331;29;20212;-56
2022/08/27 07:44:25;;;;;;;1999.90;999.90;;;;;;;22.08;100.00;90728.50;4940368;29;20217;-58
2022/08/27 07:46:51;;;;;;;1999.90;999.90;;;;;;;22.21;100.00;90730.78;4922793;29;20284;-58
2022/08/27 07:49:17;;;;;;;1999.90;999.90;;;;;;;22.24;100.00;90790.75;4922452;29;20289;-59
2022/08/27 07:51:43;;;;;;;1999.90;999.90;;;;;;;22.31;100.00;90817.66;4923240;29;20213;-58
2022/08/27 07:54:09;;;;;;;1999.90;999.90;;;;;;;22.31;100.00;90844.72;4923017;29;20201;-58
2022/08/27 07:56:35;;;;;;;1999.90;999.90;;;;;;;22.44;100.00;90858.16;4922990;29;20209;-61
2022/08/27 07:59:00;;;;;;;1999.90;999.90;;;;;;;22.63;100.00;90874.06;4922490;29;20210;-60
2022/08/27 08:01:26;;;;;;;1999.90;999.90;;;;;;;22.70;100.00;90912.88;4922770;29;20205;-60
2022/08/27 08:03:52;;;;;;;1999.90;999.90;;;;;;;22.75;100.00;90947.97;4922392;29;20209;-59
2022/08/27 08:06:17;;;;;;;1999.90;999.90;;;;;;;22.79;100.00;91036.59;4922699;29;20293;-60
2022/08/27 08:08:44;;;;;;;1999.90;999.90;;;;;;;22.99;100.00;91049.13;4922350;29;20209;-60
2022/08/27 08:11:11;;;;;;;1999.90;999.90;;;;;;;23.15;100.00;91114.28;4922560;29;20206;-60
2022/08/27 08:13:37;;;;;;;1999.90;999.90;;;;;;;23.34;100.00;91190.22;4922578;29;20210;-59
2022/08/27 08:16:04;;;;;;;1999.90;999.90;;;;;;;23.59;100.00;91232.44;4922624;29;20201;-59
2022/08/27 08:18:30;;;;;;;1999.90;999.90;;;;;;;23.46;100.00;91312.94;4922739;29;20202;-60
2022/08/27 08:21:00;;;;;;;1999.90;999.90;;;;;;;23.61;100.00;91307.81;4937903;29;20281;-61
2022/08/27 08:23:25;;;;;;;1999.90;999.90;;;;;;;23.47;100.00;91359.69;4922612;29;20206;-60
2022/08/27 08:25:51;;;;;;;1999.90;999.90;;;;;;;23.56;100.00;91344.31;4922092;29;20213;-60
2022/08/27 08:28:16;;;;;;;1999.90;999.90;;;;;;;23.57;100.00;91379.97;4922436;29;20198;-60
2022/08/27 08:30:42;;;;;;;1999.90;999.90;;;;;;;23.63;100.00;91388.03;4938596;29;20198;-60
2022/08/27 08:33:08;;;;;;;1999.90;999.90;;;;;;;23.60;100.00;91389.19;4922296;29;20301;-59
2022/08/27 08:35:37;;;;;;;1999.90;999.90;;;;;;;23.71;100.00;91410.91;4922021;29;20292;-60
2022/08/27 08:38:02;;;;;;;1999.90;999.90;;;;;;;23.72;100.00;91431.88;4937671;29;20209;-60
2022/08/27 08:40:32;;;;;;;1999.90;999.90;;;;;;;23.71;100.00;91422.06;4938237;29;20202;-60
2022/08/27 08:42:59;;;;;;;1999.90;999.90;;;;;;;23.75;100.00;91422.34;4922112;29;20236;-59
2022/08/27 08:45:30;;;;;;;1999.90;999.90;;;;;;;23.64;100.00;91409.00;4921616;29;20214;-60
2022/08/27 08:48:11;;;;;;;1999.90;999.90;;;;;;;23.72;100.00;91345.50;4922294;29;20285;-59
2022/08/27 08:50:55;;;;;;;1999.90;999.90;;;;;;;23.38;100.00;91362.47;4922362;29;20210;-59
2022/08/27 08:53:30;;;;;;;1999.90;999.90;;;;;;;23.45;100.00;91311.47;4938008;29;20209;-59
2022/08/27 08:56:00;;;;;;;1999.90;999.90;;;;;;;23.49;100.00;91273.47;4937832;29;20209;-60
2022/08/27 08:58:46;;;;;;;1999.90;999.90;;;;;;;23.51;100.00;91286.81;4922305;29;20229;-59
2022/08/27 09:01:15;;;;;;;1999.90;999.90;;;;;;;23.50;100.00;91324.38;4921430;29;20210;-60
2022/08/27 09:03:46;;;;;;;1999.90;999.90;;;;;;;23.40;100.00;91354.25;4921861;29;20277;-60
2022/08/27 09:06:48;;;;;;;1999.90;999.90;;;;;;;23.59;100.00;91287.41;4937567;29;20205;-60
2022/08/27 09:09:26;;;;;;;1999.90;999.90;;;;;;;23.70;100.00;91323.03;4937651;29;20201;-59
2022/08/27 09:12:02;;;;;;;1999.90;999.90;;;;;;;24.05;100.00;91349.31;4921574;29;20210;-60
2022/08/27 09:14:30;;;;;;;1999.90;999.90;;;;;;;24.22;100.00;91460.72;4921986;29;20209;-59
2022/08/27 09:16:59;;;;;;;1999.90;999.90;;;;;;;24.62;100.00;91494.38;4937310;29;20210;-59
2022/08/27 09:19:24;;;;;;;1999.90;999.90;;;;;;;24.96;100.00;91556.22;4922033;29;20178;-59
2022/08/27 09:21:58;;;;;;;1999.90;999.90;;;;;;;25.44;100.00;91614.81;4937945;29;20205;-60
2022/08/27 09:24:42;;;;;;;1999.90;999.90;;;;;;;25.75;100.00;91707.16;4937318;29;20216;-60
2022/08/27 09:27:11;;;;;;;1999.90;999.90;;;;;;;25.85;100.00;91770.13;4936931;29;20209;-60
2022/08/27 09:29:46;;;;;;;1999.90;999.90;;;;;;;26.05;100.00;91816.41;4921181;29;20237;-62
2022/08/27 09:32:11;;;;;;;1999.90;999.90;;;;;;;25.85;100.00;91862.44;4920988;29;20205;-60
2022/08/27 09:34:40;;;;;;;1999.90;999.90;;;;;;;25.91;100.00;91822.97;4936954;29;20206;-61
2022/08/27 09:37:19;;;;;;;1999.90;999.90;;;;;;;25.81;100.00;91836.97;4921194;29;20289;-60
2022/08/27 09:39:52;;;;;;;1999.90;999.90;;;;;;;25.87;100.00;91828.28;4937645;29;20240;-60
2022/08/27 09:42:24;;;;;;;1999.90;999.90;;;;;;;25.88;100.00;91838.88;4921086;29;20205;-60
2022/08/27 09:44:53;;;;;;;1999.90;999.90;;;;;;;25.98;100.00;91895.59;4936781;29;20221;-60
2022/08/27 09:47:19;;;;;;;1999.90;999.90;;;;;;;25.98;100.00;91929.16;4936929;29;20202;-61
2022/08/27 09:49:44;;;;;;;1999.90;999.90;;;;;;;26.09;100.00;91909.00;4936984;29;20276;-61
2022/08/27 09:52:27;;;;;;;1999.90;999.90;;;;;;;26.48;100.00;91902.06;4921131;29;20208;-59
2022/08/27 09:54:55;;;;;;;1999.90;999.90;;;;;;;26.90;100.00;92008.03;4921002;29;20212;-60
2022/08/27 09:57:41;;;;;;;1999.90;999.90;;;;;;;27.11;100.00;92081.75;4920956;29;20209;-61
2022/08/27 10:00:13;;;;;;;1999.90;999.90;;;;;;;27.02;100.00;92462.88;4936053;29;20220;-61
2022/08/27 10:02:51;;;;;;;1999.90;999.90;;;;;;;27.30;100.00;92645.28;4920021;29;20294;-61
2022/08/27 10:05:31;;;;;;;1999.90;999.90;;;;;;;27.71;100.00;92852.00;4936563;29;20248;-60
2022/08/27 10:08:16;;;;;;;1999.90;999.90;;;;;;;27.48;100.00;92962.94;4920643;29;20197;-60
2022/08/27 10:11:05;;;;;;;1999.90;999.90;;;;;;;28.00;100.00;93018.66;4920495;29;20209;-60
2022/08/27 10:13:34;;;;;;;1999.90;999.90;;;;;;;28.51;100.00;93223.13;4921034;29;20201;-60
2022/08/27 10:16:09;;;;;;;1999.90;999.90;;;;;;;28.34;100.00;93588.94;4936523;29;20197;-61
2022/08/27 10:18:36;;;;;;;1999.90;999.90;;;;;;;29.19;100.00;93689.50;4936441;29;20257;-61
2022/08/27 10:21:20;;;;;;;1999.90;999.90;;;;;;;28.65;100.00;93969.13;4936643;29;20209;-61
2022/08/27 10:24:11;;;;;;;1999.90;999.90;;;;;;;28.20;100.00;94025.81;4936401;29;20205;-60
2022/08/27 10:27:01;;;;;;;1999.90;999.90;;;;;;;27.61;100.00;94012.03;4936288;29;20206;-60
2022/08/27 10:30:00;;;;;;;1999.90;999.90;;;;;;;27.45;100.00;94092.50;4936712;29;20209;-59
2022/08/27 10:32:56;;;;;;;1999.90;999.90;;;;;;;27.15;100.00;94075.31;4936130;29;20205;-60
2022/08/27 10:35:27;;;;;;;1999.90;999.90;;;;;;;27.20;100.00;94116.47;4935959;29;20301;-60
2022/08/27 10:38:09;;;;;;;1999.90;999.90;;;;;;;27.04;100.00;94165.25;4920698;29;20206;-62
2022/08/27 10:41:14;;;;;;;1999.90;999.90;;;;;;;26.87;100.00;94251.72;4936796;29;20201;-59
2022/08/27 10:43:39;;;;;;;1999.90;999.90;;;;;;;26.78;100.00;94248.56;4919718;29;20252;-60
2022/08/27 10:46:20;;;;;;;1999.90;999.90;;;;;;;26.77;100.00;94233.81;4935828;29;20237;-60
2022/08/27 10:48:56;;;;;;;1999.90;999.90;;;;;;;26.78;100.00;94288.59;4935933;29;20293;-62
2022/08/27 10:51:43;;;;;;;1999.90;999.90;;;;;;;26.63;100.00;94260.31;4920225;29;20288;-62
2022/08/27 10:54:22;;;;;;;1999.90;999.90;;;;;;;26.69;100.00;94229.41;4920579;29;20264;-61
2022/08/27 10:57:00;;;;;;;1999.90;999.90;;;;;;;26.70;100.00;94242.84;4920014;29;20198;-57
2022/08/27 10:59:46;;;;;;;1999.90;999.90;;;;;;;27.23;100.00;94283.69;4919803;29;20247;-60
2022/08/27 11:02:34;;;;;;;1999.90;999.90;;;;;;;27.40;100.00;94373.91;4935705;29;20244;-58